Terminal Aerodrome Forecast
Issued by NWS

Home | Current Version | Previous Version | Graphics & Text | Print | Product List | Glossary Off
Versions: 1 2 3 4 5 6 7 8 9 10 11 12 13 14 15 16 17 18 19 20 21 22 23 24 25

000
FTUS43 KDDC 261440 AAB
TAFGCK
TAF AMD
KGCK 261440Z 2615/2712 22008KT 3SM BR OVC002
      TEMPO 2615/2616 6SM BR BKN005
     FM261600 19010KT P6SM BKN007
     FM261700 19010KT P6SM SCT009
     FM262300 14008KT P6SM VCTS SCT100CB=

USA.gov is the U.S. government's official web portal to all federal, state and local government web resources and services.